Arabia, OH

6:52 AM EDT on August 02, 2015 (GMT -0400)
South Ironton | | Change Station
CLOSE
Current Station
Personal Weather Station
Location: Ironton, OH
Elevation: 551 ft
Nearby Weather Stations

Elev 551 ft 38.52 °N, 82.67 °W | Updated 5 minutes ago

Partly Cloudy
Partly Cloudy
60.3 °F
Feels Like 60.3 °F
N
0.0
Wind Variable Wind from South

Today
High -- | Low -- °F
--% Chance of Precip.
Yesterday
High -- | Low -- °F
Precip. -- in
6:32 AM 8:40 PM
Waning Gibbous, 94% visible
Pressure 29.98 in
Visibility 9.0 miles
Clouds Clear
Dew Point 58 °F
Humidity 91%
Rainfall 0.00 in
Snow Depth Not available.
UV 0 out of 12
Pollen 4.90 out of 12
Air Quality Not available.
Flu Activity Not available.
METAR KHTS 020951Z AUTO 00000KT 9SM CLR 16/16 A3000 RMK AO2 SLP150 T01560156 TSNO

More Conditions Fewer Conditions

Pressure 29.98 in
Visibility 9.0 miles
Clouds Clear
Dew Point 58 °F
Humidity 91%
Rainfall 0.00 in
Snow Depth Not available.
UV 0 out of 12
Pollen 4.90 out of 12
Air Quality Not available.
Flu Activity Not available.
METAR KHTS 020951Z AUTO 00000KT 9SM CLR 16/16 A3000 RMK AO2 SLP150 T01560156 TSNO

More Conditions Fewer Conditions

10-Day Weather Forecast

×

Almanac

Astronomy

Aug. 02, 2015 Rise Set
Actual Time
Civil Twilight
Nautical Twilight
Astronomical Twilight
Moon
Length of Visible Light
Length of Day
Tomorrow will be .
, % of the Moon is Illuminated

Today's Extremes

State Highs State Lows

Community

WunderPhotos

Upload Photos

1,843,218 photos uploaded!

WunderBlogs® & News

Nearby

Air Quality

  Air Quality AQ Index Pollutant
Not available.

Snow Depth

Station Depth Elevation

Earthquake Activity

City Distance Mag. Time & Date
Minimum magnitude displayed is 2.5.

Coastal Water Temperatures

Place Temperature

Stations

Nearby Weather Stations

Station Location Temp. Windchill Dew Point Humidity Wind Precip. Elev Updated Type